Time;durP1;ratioP1;P1;durP2;ratioP2;P2;SDS_P1;SDS_P2;PMS_P1;PMS_P2;Temp;Humidity;BMP_temperature;BMP_pressure;BME280_temperature;BME280_humidity;BME280_pressure;Samples;Min_cycle;Max_cycle;Signal;HPM_P1;HPM_P2
2022/12/19 00:01:40;;;;;;;0.03;0.03;;;;;;;2.83;53.91;96861.28;4931907;29;20208;-61
2022/12/19 00:04:10;;;;;;;0.40;0.30;;;;;;;3.27;53.44;96858.41;4932029;29;20205;-63
2022/12/19 00:06:38;;;;;;;0.70;0.55;;;;;;;3.30;53.14;96864.09;4931780;29;20236;-61
2022/12/19 00:09:11;;;;;;;1.50;1.40;;;;;;;3.34;53.19;96867.16;4931857;29;20291;-61
2022/12/19 00:11:39;;;;;;;0.40;0.40;;;;;;;3.18;53.60;96864.53;4931930;29;20283;-61
2022/12/19 00:14:08;;;;;;;0.47;0.47;;;;;;;3.54;52.66;96865.84;4931620;29;20291;-63
2022/12/19 00:16:35;;;;;;;1.02;0.98;;;;;;;3.15;53.18;96859.69;4931912;29;20207;-62
2022/12/19 00:19:02;;;;;;;1.02;0.57;;;;;;;3.09;53.49;96864.56;4931768;29;20200;-63
2022/12/19 00:21:31;;;;;;;0.00;0.00;;;;;;;3.11;53.65;96872.16;4931754;29;20685;-63
2022/12/19 00:24:02;;;;;;;2.47;1.95;;;;;;;3.22;53.29;96871.03;4931267;29;20207;-63
2022/12/19 00:26:35;;;;;;;0.10;0.10;;;;;;;3.02;53.59;96871.34;4931475;29;20220;-64
2022/12/19 00:29:05;;;;;;;0.17;0.17;;;;;;;3.50;53.08;96869.75;4931701;29;20920;-63
2022/12/19 00:31:39;;;;;;;0.00;0.00;;;;;;;3.33;53.75;96868.94;4931674;29;20196;-63
2022/12/19 00:34:08;;;;;;;1.52;1.42;;;;;;;3.12;53.67;96870.41;4931547;29;20591;-61
2022/12/19 00:36:34;;;;;;;0.10;0.10;;;;;;;2.94;54.10;96878.28;4931473;29;20215;-63
2022/12/19 00:39:04;;;;;;;0.00;0.00;;;;;;;2.81;54.37;96883.94;4931896;29;20207;-62
2022/12/19 00:41:36;;;;;;;0.10;0.10;;;;;;;2.93;54.61;96880.09;4914381;29;20638;-62
2022/12/19 00:44:12;;;;;;;8.70;1.17;;;;;;;2.79;54.71;96885.88;4931571;29;20655;-61
2022/12/19 00:46:40;;;;;;;0.65;0.65;;;;;;;2.80;54.74;96874.56;4931539;29;20236;-62
2022/12/19 00:49:07;;;;;;;10.05;1.33;;;;;;;2.78;54.86;96886.84;4931771;29;20510;-61
2022/12/19 00:51:36;;;;;;;0.10;0.10;;;;;;;3.00;54.67;96878.47;4897676;29;20260;-62
2022/12/19 00:54:08;;;;;;;0.00;0.00;;;;;;;2.69;55.42;96885.22;4928677;29;20299;-62
2022/12/19 00:56:35;;;;;;;0.30;0.28;;;;;;;2.81;55.03;96881.34;4922286;29;20215;-61
2022/12/19 00:59:06;;;;;;;0.65;0.65;;;;;;;3.02;54.75;96871.34;4934909;29;20229;-62
2022/12/19 01:01:35;;;;;;;0.20;0.20;;;;;;;2.71;55.28;96878.09;4935118;29;20211;-63
2022/12/19 01:04:06;;;;;;;0.00;0.00;;;;;;;2.88;55.13;96884.91;4934801;29;20940;-61
2022/12/19 01:06:53;;;;;;;0.95;0.95;;;;;;;3.23;54.26;96877.84;4934592;29;20623;-61
2022/12/19 01:09:23;;;;;;;0.03;0.03;;;;;;;3.17;54.41;96891.44;4934888;29;20213;-60
2022/12/19 01:14:35;;;;;;;0.65;0.65;;;;;;;2.98;55.26;96885.59;4924911;29;20319;-62
2022/12/19 01:17:02;;;;;;;0.60;0.52;;;;;;;3.00;54.87;96899.19;4934783;29;20215;-62
2022/12/19 01:19:29;;;;;;;0.57;0.43;;;;;;;3.10;54.48;96893.88;4935033;29;20690;-61
2022/12/19 01:21:56;;;;;;;0.60;0.60;;;;;;;3.08;54.53;96893.22;4903511;29;20201;-62
2022/12/19 01:24:23;;;;;;;0.00;0.00;;;;;;;2.90;55.36;96893.34;4934540;29;20289;-60
2022/12/19 01:26:50;;;;;;;0.00;0.00;;;;;;;3.06;55.20;96893.38;4931545;29;20197;-62
2022/12/19 01:29:17;;;;;;;0.00;0.00;;;;;;;3.43;54.29;96900.66;4925574;29;20652;-60
2022/12/19 01:31:44;;;;;;;0.80;0.80;;;;;;;3.39;53.87;96899.38;4934656;29;20273;-61
2022/12/19 01:34:10;;;;;;;0.68;0.68;;;;;;;3.07;54.78;96904.53;4917361;29;20204;-62
2022/12/19 01:36:37;;;;;;;0.20;0.20;;;;;;;3.07;54.83;96902.75;4901691;29;20261;-60
2022/12/19 01:39:06;;;;;;;3.60;1.55;;;;;;;3.22;54.64;96897.75;4934346;29;20200;-61
2022/12/19 01:41:32;;;;;;;0.00;0.00;;;;;;;3.24;54.45;96890.63;4934333;29;20219;-62
2022/12/19 01:44:04;;;;;;;0.40;0.40;;;;;;;3.15;55.13;96885.59;4933792;29;20323;-62
2022/12/19 01:46:42;;;;;;;0.22;0.22;;;;;;;3.05;55.10;96886.56;4917183;29;20197;-63
2022/12/19 01:49:19;;;;;;;1.02;0.95;;;;;;;2.86;55.53;96896.41;4934811;29;20267;-62
2022/12/19 01:51:52;;;;;;;3.00;1.38;;;;;;;3.28;54.29;96884.16;4922740;29;20529;-63
2022/12/19 01:54:24;;;;;;;3.63;0.75;;;;;;;3.17;54.37;96894.03;4934676;29;20510;-62
2022/12/19 01:56:55;;;;;;;0.20;0.20;;;;;;;3.05;54.90;96883.16;4934583;29;20193;-63
2022/12/19 01:59:28;;;;;;;1.05;1.05;;;;;;;3.21;54.88;96884.97;4917264;29;20204;-63
2022/12/19 02:02:02;;;;;;;0.17;0.17;;;;;;;3.26;54.62;96878.34;4916870;29;20224;-62
2022/12/19 02:04:30;;;;;;;2.05;0.57;;;;;;;2.95;55.06;96880.75;4933664;29;20208;-63
2022/12/19 02:07:02;;;;;;;0.20;0.20;;;;;;;3.20;54.76;96880.75;4904060;29;20699;-62
2022/12/19 02:09:45;;;;;;;0.40;0.40;;;;;;;3.36;54.14;96884.16;4934223;29;20263;-61
2022/12/19 02:12:13;;;;;;;0.38;0.38;;;;;;;3.22;54.48;96886.56;4933611;29;20248;-62
2022/12/19 02:14:41;;;;;;;0.52;0.52;;;;;;;3.03;54.73;96883.31;4933885;29;20197;-62
2022/12/19 02:17:45;;;;;;;0.80;0.55;;;;;;;3.05;55.20;96883.16;4933860;29;20223;-65
2022/12/19 02:20:18;;;;;;;0.10;0.10;;;;;;;3.36;54.25;96878.19;4916386;29;20252;-64
2022/12/19 02:23:15;;;;;;;1.60;1.50;;;;;;;3.19;54.62;96876.53;4905733;29;20208;-65
2022/12/19 02:25:54;;;;;;;11.45;2.70;;;;;;;3.16;54.60;96884.66;4921286;29;20192;-61
2022/12/19 02:28:56;;;;;;;0.00;0.00;;;;;;;3.19;54.86;96892.09;4903273;29;20239;-63
2022/12/19 02:31:33;;;;;;;0.52;0.52;;;;;;;3.35;54.56;96902.44;4903768;29;20209;-64
2022/12/19 02:34:37;;;;;;;0.00;0.00;;;;;;;3.31;54.57;96895.97;4915884;29;20200;-62
2022/12/19 02:37:16;;;;;;;1.10;1.00;;;;;;;3.07;54.62;96901.94;4915910;29;20588;-62
2022/12/19 02:39:51;;;;;;;0.60;0.60;;;;;;;3.00;55.19;96894.00;4915822;29;20232;-61
2022/12/19 02:42:31;;;;;;;0.10;0.10;;;;;;;2.77;55.82;96903.34;4907732;29;20215;-61
2022/12/19 02:45:04;;;;;;;1.23;0.95;;;;;;;3.00;55.49;96899.19;4912592;29;20237;-62
2022/12/19 02:47:33;;;;;;;2.47;2.20;;;;;;;2.93;55.45;96902.56;4900122;29;20264;-62
2022/12/19 02:50:02;;;;;;;0.20;0.20;;;;;;;2.76;55.34;96906.91;4915994;29;20204;-60
2022/12/19 02:52:29;;;;;;;0.00;0.00;;;;;;;2.67;55.63;96897.50;4915770;29;20216;-62
2022/12/19 02:55:03;;;;;;;6.68;2.53;;;;;;;2.78;55.21;96899.78;4915851;29;20595;-62
2022/12/19 02:58:06;;;;;;;0.05;0.05;;;;;;;2.82;55.55;96895.94;4915620;29;20227;-61
2022/12/19 03:00:43;;;;;;;14.52;2.45;;;;;;;2.59;55.97;96894.88;4903225;29;20285;-62
2022/12/19 03:03:23;;;;;;;1.08;0.80;;;;;;;2.21;56.55;96885.03;4932699;29;20652;-61
2022/12/19 03:06:12;;;;;;;0.10;0.10;;;;;;;2.41;56.28;96883.81;4915792;29;20196;-62
2022/12/19 03:08:56;;;;;;;8.65;1.77;;;;;;;2.92;55.05;96885.41;4932179;29;20263;-63
2022/12/19 03:11:26;;;;;;;1.70;0.60;;;;;;;2.73;55.66;96881.34;4915446;29;20220;-62
2022/12/19 03:13:58;;;;;;;0.00;0.00;;;;;;;2.90;55.64;96882.97;4931302;29;20571;-62
2022/12/19 03:16:25;;;;;;;1.33;1.10;;;;;;;2.94;55.28;96880.88;4932741;29;20203;-61
2022/12/19 03:18:54;;;;;;;0.75;0.43;;;;;;;3.17;55.18;96870.72;4897738;29;20197;-60
2022/12/19 03:21:36;;;;;;;0.10;0.10;;;;;;;2.98;55.02;96882.19;4925545;29;20220;-62
2022/12/19 03:24:06;;;;;;;0.38;0.38;;;;;;;2.95;55.19;96879.91;4920130;29;20200;-63
2022/12/19 03:26:43;;;;;;;0.52;0.52;;;;;;;2.97;54.97;96883.94;4932266;29;20583;-63
2022/12/19 03:29:38;;;;;;;1.25;0.77;;;;;;;3.01;54.79;96882.66;4932738;29;20358;-61
2022/12/19 03:32:09;;;;;;;0.00;0.00;;;;;;;2.75;55.47;96889.78;4932658;29;20834;-62
2022/12/19 03:34:56;;;;;;;1.88;0.90;;;;;;;3.07;55.04;96889.81;4932728;29;20211;-61
2022/12/19 03:37:27;;;;;;;1.08;1.02;;;;;;;3.13;54.93;96892.72;4932723;29;20208;-63
2022/12/19 03:39:59;;;;;;;0.00;0.00;;;;;;;2.80;55.18;96903.03;4932248;29;20748;-62
2022/12/19 03:45:20;;;;;;;0.00;0.00;;;;;;;2.98;55.04;96900.31;4931866;29;20317;-61
2022/12/19 03:47:54;;;;;;;0.30;0.30;;;;;;;2.97;55.11;96896.13;4931739;29;20616;-61
2022/12/19 03:50:26;;;;;;;0.10;0.10;;;;;;;2.78;54.81;96899.78;4931680;29;20201;-63
2022/12/19 03:52:59;;;;;;;0.70;0.70;;;;;;;3.11;54.97;96900.66;4931908;29;20593;-62
2022/12/19 03:55:36;;;;;;;9.07;2.10;;;;;;;3.13;54.55;96908.25;4932211;29;20219;-61
2022/12/19 03:58:09;;;;;;;0.00;0.00;;;;;;;3.65;53.42;96919.97;4932022;29;20951;-61
2022/12/19 04:00:46;;;;;;;0.77;0.47;;;;;;;3.89;52.61;96918.13;4932278;29;20679;-63
2022/12/19 04:03:16;;;;;;;1.05;1.05;;;;;;;3.44;53.10;96911.84;4931949;29;20261;-62
2022/12/19 04:05:45;;;;;;;0.10;0.10;;;;;;;3.23;53.84;96925.25;4931713;29;20208;-61
2022/12/19 04:08:13;;;;;;;0.47;0.47;;;;;;;3.31;53.20;96927.88;4931658;29;20216;-62
2022/12/19 04:10:50;;;;;;;0.55;0.55;;;;;;;3.22;53.40;96935.78;4932121;29;20687;-62
2022/12/19 04:13:24;;;;;;;0.00;0.00;;;;;;;3.54;53.69;96922.88;4931785;29;20948;-62
2022/12/19 04:16:15;;;;;;;0.63;0.63;;;;;;;3.51;53.10;96939.56;4931584;29;20667;-62
2022/12/19 04:18:51;;;;;;;0.05;0.05;;;;;;;3.57;52.62;96940.69;4932176;29;20205;-60
2022/12/19 04:21:34;;;;;;;1.58;1.48;;;;;;;3.57;53.13;96951.06;4931950;29;20204;-63
2022/12/19 04:24:19;;;;;;;0.00;0.00;;;;;;;3.38;52.81;96948.75;4931342;29;20201;-62
2022/12/19 04:26:48;;;;;;;0.30;0.30;;;;;;;3.38;52.77;96948.75;4932976;29;20622;-63
2022/12/19 04:29:16;;;;;;;0.35;0.35;;;;;;;3.23;52.92;96950.38;4935838;29;20216;-63
2022/12/19 04:31:43;;;;;;;1.25;0.90;;;;;;;3.33;52.67;96948.44;4935330;29;20799;-63
2022/12/19 04:34:10;;;;;;;0.00;0.00;;;;;;;3.27;52.99;96941.31;4935474;29;20231;-61
2022/12/19 04:36:37;;;;;;;0.80;0.80;;;;;;;3.17;53.09;96935.47;4935805;29;20200;-61
2022/12/19 04:39:04;;;;;;;0.43;0.43;;;;;;;2.79;54.17;96936.84;4936336;29;20205;-63
2022/12/19 04:41:31;;;;;;;0.77;0.77;;;;;;;3.00;53.40;96940.63;4935681;29;20229;-62
2022/12/19 04:43:58;;;;;;;0.40;0.40;;;;;;;2.99;53.42;96938.19;4935296;29;20708;-62
2022/12/19 04:46:25;;;;;;;0.70;0.60;;;;;;;2.93;53.47;96939.66;4935483;29;20267;-64
2022/12/19 04:48:52;;;;;;;0.68;0.68;;;;;;;2.93;53.68;96944.81;4935168;29;20247;-62
2022/12/19 04:51:19;;;;;;;0.52;0.52;;;;;;;2.89;53.82;96953.06;4934803;29;20216;-62
2022/12/19 04:53:46;;;;;;;1.55;1.10;;;;;;;2.65;54.39;96950.38;4935791;29;20196;-62
2022/12/19 04:56:13;;;;;;;0.30;0.30;;;;;;;2.38;54.80;96954.00;4934946;29;20669;-61
2022/12/19 04:58:40;;;;;;;0.45;0.13;;;;;;;2.68;54.26;96961.22;4935706;29;20208;-62
2022/12/19 05:01:08;;;;;;;1.08;1.08;;;;;;;2.66;54.67;96958.00;4928480;29;20207;-60
2022/12/19 05:03:35;;;;;;;0.38;0.38;;;;;;;2.68;54.86;96965.63;4932328;29;20738;-62
2022/12/19 05:06:05;;;;;;;1.88;1.30;;;;;;;2.60;54.96;96963.81;4936010;29;20727;-62
2022/12/19 05:08:32;;;;;;;0.25;0.25;;;;;;;2.45;55.13;96967.94;4935897;29;20228;-61
2022/12/19 05:11:00;;;;;;;0.28;0.28;;;;;;;2.23;55.52;96965.88;4936814;29;20220;-63
2022/12/19 05:13:29;;;;;;;0.45;0.45;;;;;;;2.26;55.22;96964.75;4936759;29;20280;-61
2022/12/19 05:15:57;;;;;;;0.00;0.00;;;;;;;2.25;55.69;96970.88;4936540;29;20224;-62
2022/12/19 05:18:24;;;;;;;2.10;1.95;;;;;;;2.56;55.08;96962.47;4936839;29;20288;-62
2022/12/19 05:20:52;;;;;;;0.30;0.30;;;;;;;2.19;55.81;96964.56;4936727;29;20200;-63
2022/12/19 05:23:19;;;;;;;0.25;0.22;;;;;;;2.67;54.86;96959.63;4936624;29;20212;-62
2022/12/19 05:25:46;;;;;;;4.38;3.35;;;;;;;2.12;55.40;96963.53;4936178;29;20283;-62
2022/12/19 05:28:14;;;;;;;0.30;0.30;;;;;;;2.70;54.67;96967.06;4933329;29;20216;-62
2022/12/19 05:30:41;;;;;;;0.00;0.00;;;;;;;2.79;54.20;96967.94;4921985;29;20227;-61
2022/12/19 05:33:16;;;;;;;0.95;0.95;;;;;;;2.30;54.74;96982.41;4919504;29;20218;-61
2022/12/19 05:35:43;;;;;;;0.22;0.22;;;;;;;2.24;55.61;96972.69;4934520;29;20636;-64
2022/12/19 05:38:09;;;;;;;0.25;0.25;;;;;;;2.13;55.72;96974.72;4934756;29;20264;-63
2022/12/19 05:40:36;;;;;;;0.57;0.57;;;;;;;2.10;55.71;96970.63;4941547;29;20290;-63
2022/12/19 05:43:03;;;;;;;0.20;0.20;;;;;;;2.40;55.61;96979.72;4935134;29;20192;-62
2022/12/19 05:45:30;;;;;;;1.55;1.45;;;;;;;2.50;54.56;96973.44;4952297;29;20232;-61
2022/12/19 05:47:57;;;;;;;0.00;0.00;;;;;;;2.45;55.37;96969.69;4953789;29;20223;-63
2022/12/19 05:50:27;;;;;;;0.00;0.00;;;;;;;2.30;55.44;96972.06;4953574;29;20648;-63
2022/12/19 05:52:54;;;;;;;11.32;1.00;;;;;;;2.31;55.76;96976.28;4952267;29;20202;-62
2022/12/19 05:55:21;;;;;;;0.28;0.28;;;;;;;2.14;55.55;96977.13;4952145;29;20694;-61
2022/12/19 05:57:48;;;;;;;0.20;0.20;;;;;;;2.73;54.58;96978.91;4951741;29;20859;-61
2022/12/19 06:00:15;;;;;;;1.60;1.50;;;;;;;2.75;54.51;96985.56;4951692;29;20195;-62
2022/12/19 06:02:42;;;;;;;0.30;0.30;;;;;;;3.02;54.14;96980.13;4951822;29;20591;-61
2022/12/19 06:05:12;;;;;;;0.08;0.08;;;;;;;3.05;53.89;96974.63;4951698;29;20203;-63
2022/12/19 06:07:39;;;;;;;0.00;0.00;;;;;;;3.08;54.05;96978.69;4952685;29;20238;-67
2022/12/19 06:10:06;;;;;;;0.17;0.17;;;;;;;3.24;57.07;96975.31;4952975;28;20306;-64
2022/12/19 06:12:33;;;;;;;0.30;0.30;;;;;;;3.36;57.29;96972.25;4952948;29;20204;-64
2022/12/19 06:15:00;;;;;;;0.00;0.00;;;;;;;3.05;54.97;96984.16;4953111;29;20613;-63
2022/12/19 06:17:27;;;;;;;0.52;0.50;;;;;;;3.68;53.91;96979.25;4936283;29;20215;-57
2022/12/19 06:19:54;;;;;;;0.70;0.70;;;;;;;3.73;53.77;96989.94;4952456;29;20207;-61
2022/12/19 06:22:20;;;;;;;0.90;0.90;;;;;;;3.72;53.45;96990.94;4952238;29;20266;-62
2022/12/19 06:24:47;;;;;;;7.53;1.55;;;;;;;3.81;53.73;96989.94;4952393;29;20192;-60
2022/12/19 06:27:14;;;;;;;0.28;0.28;;;;;;;3.61;53.22;96996.44;4952391;29;20231;-61
2022/12/19 06:29:42;;;;;;;0.15;0.15;;;;;;;3.49;53.28;96995.09;4939143;29;20842;-60
2022/12/19 06:32:09;;;;;;;0.80;0.80;;;;;;;3.53;53.39;96984.25;4952922;29;20240;-61
2022/12/19 06:34:36;;;;;;;0.77;0.77;;;;;;;3.09;54.09;96996.66;4952459;29;20667;-61
2022/12/19 06:37:23;;;;;;;0.00;0.00;;;;;;;3.46;53.90;96992.84;4952568;29;20274;-62
2022/12/19 06:39:50;;;;;;;0.08;0.08;;;;;;;3.77;52.86;96993.84;4952290;29;20207;-61
2022/12/19 06:42:22;;;;;;;0.20;0.10;;;;;;;3.48;53.27;97001.28;4952342;29;20215;-62
2022/12/19 06:44:51;;;;;;;0.35;0.35;;;;;;;3.87;52.46;96997.88;4951791;29;20236;-62
2022/12/19 06:47:19;;;;;;;0.45;0.45;;;;;;;3.63;53.29;97010.03;4952543;29;20199;-62
2022/12/19 06:49:47;;;;;;;2.17;1.48;;;;;;;3.77;52.96;97014.56;4951846;28;20242;-59
2022/12/19 06:52:15;;;;;;;5.30;1.85;;;;;;;3.94;52.00;96987.69;4952063;29;20328;-59
2022/12/19 06:54:42;;;;;;;0.88;0.88;;;;;;;3.82;52.69;97017.50;4952299;29;20184;-61
2022/12/19 06:57:09;;;;;;;1.25;1.15;;;;;;;3.99;52.89;97017.34;4952181;29;20275;-62
2022/12/19 06:59:36;;;;;;;1.00;0.93;;;;;;;3.57;53.50;97026.22;4952088;29;20200;-62
2022/12/19 07:02:18;;;;;;;1.05;0.95;;;;;;;3.84;53.13;97028.50;4952569;29;20250;-62
2022/12/19 07:04:50;;;;;;;0.43;0.35;;;;;;;3.86;53.31;97031.75;4940369;29;20195;-61
2022/12/19 07:07:18;;;;;;;2.92;1.92;;;;;;;3.40;54.11;97035.75;4951027;29;20200;-61
2022/12/19 07:09:46;;;;;;;5.55;1.30;;;;;;;3.84;53.61;97033.69;4952016;29;20274;-63
2022/12/19 07:12:13;;;;;;;1.40;1.35;;;;;;;3.63;53.73;97033.38;4951524;29;20750;-60
2022/12/19 07:14:40;;;;;;;0.75;0.75;;;;;;;3.29;54.77;97040.41;4951682;29;20204;-60
2022/12/19 07:17:07;;;;;;;0.47;0.47;;;;;;;2.74;56.16;97047.81;4951618;28;20203;-60
2022/12/19 07:19:34;;;;;;;1.75;1.30;;;;;;;3.25;54.97;97041.72;4952016;29;20628;-62
2022/12/19 07:22:02;;;;;;;0.63;0.63;;;;;;;3.39;54.51;97043.69;4951761;29;20199;-61
2022/12/19 07:24:30;;;;;;;1.30;1.25;;;;;;;3.45;54.43;97043.84;4952405;29;20254;-60
2022/12/19 07:26:57;;;;;;;9.57;1.55;;;;;;;3.75;54.03;97045.03;4951583;29;20697;-60
2022/12/19 07:29:24;;;;;;;4.10;1.63;;;;;;;3.81;53.32;97047.00;4951616;29;20697;-60
2022/12/19 07:31:51;;;;;;;1.48;1.38;;;;;;;3.69;54.01;97045.66;4951147;29;20208;-61
2022/12/19 07:34:18;;;;;;;0.85;0.45;;;;;;;3.65;53.61;97045.19;4951183;29;20188;-62
2022/12/19 07:36:45;;;;;;;0.88;0.88;;;;;;;4.10;52.85;97042.97;4951185;29;20640;-60
2022/12/19 07:39:12;;;;;;;1.77;1.67;;;;;;;3.78;53.30;97055.09;4951534;29;20204;-62
2022/12/19 07:41:38;;;;;;;0.45;0.45;;;;;;;4.01;53.21;97061.28;4950897;28;20259;-60
2022/12/19 07:44:06;;;;;;;5.97;2.58;;;;;;;4.07;52.71;97063.19;4951180;29;20994;-61
2022/12/19 07:46:33;;;;;;;5.70;2.08;;;;;;;4.00;53.11;97070.84;4951022;29;20199;-59
2022/12/19 07:49:00;;;;;;;3.05;2.67;;;;;;;4.17;52.62;97066.47;4951771;29;20226;-58
2022/12/19 07:51:27;;;;;;;0.90;0.68;;;;;;;4.11;53.00;97074.88;4952012;29;20196;-61
2022/12/19 07:53:54;;;;;;;0.30;0.30;;;;;;;3.99;53.14;97078.78;4952066;29;20240;-60
2022/12/19 07:56:21;;;;;;;1.02;0.95;;;;;;;4.31;52.51;97081.38;4956394;28;20214;-60
2022/12/19 07:58:47;;;;;;;1.58;1.35;;;;;;;4.14;52.88;97087.56;4958697;28;20200;-61
2022/12/19 08:01:14;;;;;;;3.38;1.33;;;;;;;3.98;53.26;97095.31;4950644;28;20259;-59
2022/12/19 08:03:41;;;;;;;1.40;1.30;;;;;;;4.14;52.71;97097.94;4951583;29;20199;-60
2022/12/19 08:06:10;;;;;;;2.13;1.95;;;;;;;4.33;52.55;97086.38;4951107;29;20200;-61
2022/12/19 08:08:36;;;;;;;3.47;3.17;;;;;;;4.33;52.55;97095.00;4950977;29;20585;-59
2022/12/19 08:11:08;;;;;;;2.50;2.33;;;;;;;4.28;52.86;97097.28;4950848;29;20192;-60
2022/12/19 08:13:35;;;;;;;1.83;1.73;;;;;;;4.05;53.43;97093.72;4950580;29;20200;-58
2022/12/19 08:16:09;;;;;;;2.22;1.27;;;;;;;3.95;53.18;97093.84;4950988;29;20679;-60
2022/12/19 08:18:36;;;;;;;1.83;1.73;;;;;;;4.30;52.64;97097.94;4951240;29;20200;-60
2022/12/19 08:21:03;;;;;;;3.85;3.40;;;;;;;4.32;52.02;97106.38;4950923;29;20980;-60
2022/12/19 08:23:31;;;;;;;2.70;2.53;;;;;;;3.98;53.11;97110.88;4950644;29;20303;-61
2022/12/19 08:26:04;;;;;;;1.40;1.35;;;;;;;4.17;52.91;97102.78;4950735;29;20282;-62
2022/12/19 08:28:35;;;;;;;2.05;1.50;;;;;;;4.02;52.95;97099.19;4951054;29;20939;-63
2022/12/19 08:31:10;;;;;;;0.35;0.35;;;;;;;3.60;53.61;97109.66;4950754;29;20538;-60
2022/12/19 08:33:38;;;;;;;2.92;1.83;;;;;;;3.69;53.31;97102.72;4950479;29;20266;-61
2022/12/19 08:36:06;;;;;;;14.15;2.72;;;;;;;3.85;53.43;97100.19;4951131;29;20204;-61
2022/12/19 08:38:34;;;;;;;2.95;0.98;;;;;;;3.98;53.15;97109.09;4948369;29;20200;-61
2022/12/19 08:41:01;;;;;;;1.73;1.63;;;;;;;3.78;53.91;97107.75;4950825;29;20701;-61
2022/12/19 08:43:28;;;;;;;1.67;1.58;;;;;;;3.83;54.00;97105.50;4950182;29;20317;-59
2022/12/19 08:45:55;;;;;;;2.80;2.35;;;;;;;4.19;53.31;97102.63;4950489;29;20188;-60
2022/12/19 08:48:22;;;;;;;2.38;2.00;;;;;;;4.09;53.66;97100.19;4950619;29;20218;-60
2022/12/19 08:50:49;;;;;;;1.85;0.88;;;;;;;4.55;52.64;97089.13;4950865;29;20239;-61
2022/12/19 08:53:16;;;;;;;2.28;2.17;;;;;;;4.47;52.98;97085.75;4950843;29;20298;-62
2022/12/19 08:55:55;;;;;;;0.50;0.50;;;;;;;4.41;53.27;97084.63;4950648;29;20267;-61
2022/12/19 08:58:24;;;;;;;1.65;1.40;;;;;;;4.43;53.16;97077.47;4950976;29;20774;-61
2022/12/19 09:00:54;;;;;;;4.18;1.83;;;;;;;4.60;52.88;97079.06;4950142;29;20235;-60
2022/12/19 09:03:31;;;;;;;1.30;1.02;;;;;;;4.33;54.05;97076.81;4950097;29;20204;-60
2022/12/19 09:06:19;;;;;;;1.77;1.67;;;;;;;4.74;52.63;97075.81;4950685;29;20192;-62
2022/12/19 09:08:46;;;;;;;0.73;0.73;;;;;;;5.02;52.50;97073.59;4949796;29;20243;-59
2022/12/19 09:11:15;;;;;;;0.95;0.95;;;;;;;5.03;52.07;97063.06;4950425;28;20215;-60
2022/12/19 09:13:43;;;;;;;1.50;1.40;;;;;;;5.26;51.81;97060.50;4953133;29;20236;-62
2022/12/19 09:16:11;;;;;;;3.58;1.63;;;;;;;5.18;51.68;97060.56;4954153;29;20212;-54
2022/12/19 09:18:39;;;;;;;2.60;1.45;;;;;;;4.97;52.63;97055.91;4953750;29;20259;-60
2022/12/19 09:21:15;;;;;;;6.45;3.35;;;;;;;5.03;52.84;97054.44;4954151;29;20196;-57
2022/12/19 09:23:46;;;;;;;1.60;1.50;;;;;;;5.34;51.91;97054.47;4953461;29;20200;-60
2022/12/19 09:26:15;;;;;;;0.88;0.88;;;;;;;5.30;52.00;97054.00;4954076;29;20238;-60
2022/12/19 09:28:44;;;;;;;1.38;1.30;;;;;;;5.14;52.75;97044.50;4953727;29;20271;-61
2022/12/19 09:31:14;;;;;;;0.52;0.52;;;;;;;5.28;51.82;97029.94;4953729;29;20199;-61
2022/12/19 09:33:42;;;;;;;0.93;0.93;;;;;;;5.15;52.29;97040.91;4941128;29;20200;-60
2022/12/19 09:36:15;;;;;;;0.90;0.80;;;;;;;5.14;51.86;97036.69;4953760;29;20200;-62
2022/12/19 09:38:43;;;;;;;1.17;1.17;;;;;;;4.88;52.04;97020.56;4953439;29;20302;-61
2022/12/19 09:41:32;;;;;;;2.67;0.80;;;;;;;4.83;52.10;97022.84;4953782;29;20307;-58
2022/12/19 09:44:06;;;;;;;1.65;1.55;;;;;;;5.06;52.45;97023.72;4943045;29;20240;-58
2022/12/19 09:47:01;;;;;;;4.35;1.23;;;;;;;5.45;51.31;97013.28;4954064;29;20208;-58
2022/12/19 09:49:37;;;;;;;1.00;0.50;;;;;;;5.53;50.86;97013.22;4953507;29;20230;-61
2022/12/19 09:52:12;;;;;;;1.27;1.25;;;;;;;5.21;51.82;97015.22;4953755;29;20212;-61
2022/12/19 09:55:18;;;;;;;0.30;0.30;;;;;;;5.15;51.75;97006.31;4953230;29;20208;-60
2022/12/19 09:57:57;;;;;;;0.25;0.25;;;;;;;5.50;51.93;97005.78;4930570;29;20731;-61
2022/12/19 10:00:32;;;;;;;0.25;0.25;;;;;;;5.45;51.56;97004.69;4953366;29;20279;-61
2022/12/19 10:03:09;;;;;;;1.60;1.45;;;;;;;5.63;52.09;97006.03;4940709;29;20200;-60
2022/12/19 10:05:44;;;;;;;0.32;0.32;;;;;;;5.62;51.41;96985.41;4953108;29;20199;-58
2022/12/19 10:08:37;;;;;;;0.73;0.73;;;;;;;5.68;52.02;96997.69;4953389;29;20208;-59
2022/12/19 10:12:05;;;;;;;1.30;1.20;;;;;;;5.78;51.50;96998.28;4953232;29;20273;-59
2022/12/19 10:15:05;;;;;;;0.32;0.32;;;;;;;5.79;51.98;96986.88;4918079;29;20595;-62
2022/12/19 10:17:35;;;;;;;0.08;0.08;;;;;;;6.02;51.38;96982.50;4941664;29;20640;-60
2022/12/19 10:20:28;;;;;;;0.10;0.10;;;;;;;6.38;51.19;96985.25;4952903;29;20192;-58
2022/12/19 10:23:22;;;;;;;1.35;1.25;;;;;;;6.44;51.85;96980.13;4952556;28;20217;-60
2022/12/19 10:25:51;;;;;;;0.30;0.30;;;;;;;6.53;51.17;96968.63;4941724;29;20208;-59
2022/12/19 10:28:50;;;;;;;3.40;1.27;;;;;;;6.84;50.69;96956.22;4952858;29;20210;-60
2022/12/19 10:31:25;;;;;;;0.22;0.22;;;;;;;7.06;50.18;96950.06;4952991;29;20230;-62
2022/12/19 10:34:32;;;;;;;0.85;0.55;;;;;;;6.89;51.18;96942.66;4952898;29;20670;-61
2022/12/19 10:37:37;;;;;;;1.40;1.13;;;;;;;6.52;51.03;96940.97;4918563;29;20756;-61
2022/12/19 10:40:19;;;;;;;0.68;0.68;;;;;;;6.28;51.85;96946.44;4952702;29;20227;-60
2022/12/19 10:43:10;;;;;;;5.32;2.70;;;;;;;6.41;52.16;96946.63;4952411;29;20215;-57
2022/12/19 10:45:50;;;;;;;0.30;0.20;;;;;;;6.12;52.33;96938.81;4952829;29;20330;-61
2022/12/19 10:48:20;;;;;;;0.10;0.10;;;;;;;6.09;52.02;96939.16;4952609;29;20283;-57
2022/12/19 10:50:57;;;;;;;0.28;0.28;;;;;;;6.01;52.22;96945.25;4951772;29;20595;-60
2022/12/19 10:53:31;;;;;;;0.70;0.70;;;;;;;5.50;54.00;96934.75;4952422;29;20231;-61
2022/12/19 10:56:01;;;;;;;2.08;1.75;;;;;;;5.82;53.92;96942.31;4952229;29;20270;-60
2022/12/19 10:58:36;;;;;;;2.17;1.55;;;;;;;6.02;52.89;96933.06;4934787;29;20614;-60
2022/12/19 11:01:08;;;;;;;1.17;1.08;;;;;;;5.96;53.95;96933.75;4952225;29;20241;-61
2022/12/19 11:03:37;;;;;;;0.70;0.70;;;;;;;5.89;53.49;96938.06;4952086;29;20196;-59
2022/12/19 11:06:05;;;;;;;1.00;1.00;;;;;;;6.03;53.39;96932.06;4951715;29;20200;-61
2022/12/19 11:08:36;;;;;;;0.35;0.35;;;;;;;6.19;52.73;96924.09;4952406;29;20269;-60
2022/12/19 11:11:02;;;;;;;2.85;1.73;;;;;;;6.52;52.92;96930.56;4940066;29;20270;-58
2022/12/19 11:13:49;;;;;;;0.00;0.00;;;;;;;6.62;51.91;96936.31;4952021;29;20270;-61
2022/12/19 11:16:37;;;;;;;0.00;0.00;;;;;;;6.43;52.92;96921.22;4952542;29;20227;-59
2022/12/19 11:19:26;;;;;;;5.65;2.10;;;;;;;6.39;53.06;96925.16;4941777;29;20207;-57
2022/12/19 11:22:29;;;;;;;0.10;0.10;;;;;;;6.34;53.01;96917.09;4951935;29;20216;-59
2022/12/19 11:25:21;;;;;;;0.30;0.28;;;;;;;6.52;52.44;96916.72;4951506;29;20203;-60
2022/12/19 11:28:26;;;;;;;0.38;0.38;;;;;;;6.49;52.85;96920.50;4951568;29;20206;-61
2022/12/19 11:31:25;;;;;;;0.50;0.50;;;;;;;6.42;53.52;96921.41;4952114;29;20233;-61
2022/12/19 11:34:22;;;;;;;29.98;1.48;;;;;;;6.51;52.87;96922.94;4951223;29;20200;-59
2022/12/19 11:36:55;;;;;;;0.32;0.32;;;;;;;6.76;52.84;96917.25;4951213;29;20567;-61
2022/12/19 11:39:29;;;;;;;0.65;0.65;;;;;;;6.54;51.60;96923.38;4951241;29;20206;-61
2022/12/19 11:42:14;;;;;;;0.30;0.30;;;;;;;6.62;52.16;96915.47;4950969;29;20659;-59
2022/12/19 11:44:51;;;;;;;0.55;0.55;;;;;;;6.60;51.60;96917.44;4951042;29;20624;-61
2022/12/19 11:47:24;;;;;;;1.00;0.90;;;;;;;6.89;51.96;96912.19;4951280;29;20566;-60
2022/12/19 11:49:59;;;;;;;0.13;0.13;;;;;;;6.95;51.55;96911.44;4951095;29;20228;-61
2022/12/19 11:52:43;;;;;;;1.55;0.50;;;;;;;6.49;52.08;96915.31;4950926;29;20327;-61
2022/12/19 11:55:39;;;;;;;0.00;0.00;;;;;;;6.62;52.49;96920.69;4942249;29;20651;-61
2022/12/19 11:58:11;;;;;;;15.70;0.82;;;;;;;6.72;51.94;96918.59;4950897;29;20290;-63
2022/12/19 12:00:51;;;;;;;0.80;0.20;;;;;;;6.51;53.08;96909.91;4951065;29;20215;-62
2022/12/19 12:03:30;;;;;;;0.93;0.93;;;;;;;6.52;52.89;96914.94;4951072;29;20651;-61
2022/12/19 12:05:57;;;;;;;0.25;0.25;;;;;;;6.32;54.00;96908.66;4951282;29;20275;-60
2022/12/19 12:08:39;;;;;;;0.00;0.00;;;;;;;6.24;54.10;96911.31;4950885;29;20227;-60
2022/12/19 12:11:41;;;;;;;0.00;0.00;;;;;;;5.93;54.67;96918.50;4940830;29;20218;-61
2022/12/19 12:14:28;;;;;;;0.40;0.40;;;;;;;5.72;55.01;96926.13;4950689;29;20206;-61
2022/12/19 12:17:36;;;;;;;0.10;0.10;;;;;;;5.83;55.20;96923.13;4951304;29;20299;-59